createdAt,value
2023-02-18T00:01:20.834Z,12.70
2023-02-18T00:03:48.057Z,19.60
2023-02-18T00:06:18.627Z,10.67
2023-02-18T00:08:46.373Z,12.03
2023-02-18T00:11:13.848Z,12.20
2023-02-18T00:13:40.739Z,14.00
2023-02-18T00:16:12.855Z,13.07
2023-02-18T00:18:39.998Z,11.23
2023-02-18T00:21:08.375Z,14.27
2023-02-18T00:23:35.106Z,16.83
2023-02-18T00:26:08.782Z,14.47
2023-02-18T00:28:36.209Z,18.37
2023-02-18T00:31:14.534Z,14.40
2023-02-18T00:33:41.996Z,15.37
2023-02-18T00:36:12.125Z,12.20
2023-02-18T00:38:38.850Z,13.90
2023-02-18T00:41:06.795Z,17.23
2023-02-18T00:43:33.404Z,11.57
2023-02-18T00:46:00.059Z,13.93
2023-02-18T00:48:26.731Z,16.67
2023-02-18T00:50:53.281Z,13.03
2023-02-18T00:53:20.065Z,14.97
2023-02-18T00:55:49.723Z,14.13
2023-02-18T00:58:16.676Z,12.30
2023-02-18T01:00:43.686Z,15.60
2023-02-18T01:03:10.506Z,16.13
2023-02-18T01:05:38.725Z,12.33
2023-02-18T01:08:06.776Z,16.57
2023-02-18T01:10:33.643Z,10.17
2023-02-18T01:13:00.520Z,12.43
2023-02-18T01:15:27.310Z,17.43
2023-02-18T01:17:53.877Z,11.73
2023-02-18T01:20:20.664Z,11.60
2023-02-18T01:22:47.322Z,10.37
2023-02-18T01:25:14.206Z,12.77
2023-02-18T01:27:41.554Z,15.30
2023-02-18T01:30:10.436Z,12.67
2023-02-18T01:32:38.094Z,14.70
2023-02-18T01:35:06.554Z,13.27
2023-02-18T01:37:33.152Z,13.00
2023-02-18T01:40:00.303Z,12.33
2023-02-18T01:42:29.284Z,11.83
2023-02-18T01:45:37.328Z,13.10
2023-02-18T01:48:31.120Z,13.23
2023-02-18T01:51:07.302Z,14.50
2023-02-18T01:54:06.338Z,14.53
2023-02-18T01:56:37.828Z,11.17
2023-02-18T01:59:11.431Z,10.73
2023-02-18T02:01:39.346Z,12.33
2023-02-18T02:04:06.004Z,12.40
2023-02-18T02:06:32.773Z,13.00
2023-02-18T02:09:02.542Z,14.43
2023-02-18T02:11:59.442Z,10.40
2023-02-18T02:14:45.422Z,10.37
2023-02-18T02:17:50.453Z,9.37
2023-02-18T02:20:51.155Z,13.73
2023-02-18T02:24:09.380Z,15.20
2023-02-18T02:26:59.545Z,12.20
2023-02-18T02:30:01.541Z,11.53
2023-02-18T02:32:56.565Z,13.73
2023-02-18T02:35:52.736Z,14.97
2023-02-18T02:38:29.362Z,16.13
2023-02-18T02:41:12.505Z,15.60
2023-02-18T02:44:00.746Z,22.37
2023-02-18T02:46:36.858Z,10.03
2023-02-18T02:49:09.124Z,9.90
2023-02-18T02:51:49.787Z,9.63
2023-02-18T02:54:23.051Z,13.03
2023-02-18T02:56:50.114Z,12.87
2023-02-18T02:59:22.064Z,10.70
2023-02-18T03:01:58.992Z,16.07
2023-02-18T03:04:34.369Z,14.07
2023-02-18T03:07:18.410Z,9.90
2023-02-18T03:10:12.970Z,10.40
2023-02-18T03:13:04.512Z,9.87
2023-02-18T03:15:53.278Z,9.33
2023-02-18T03:18:40.602Z,10.00
2023-02-18T03:21:27.150Z,7.27
2023-02-18T03:23:58.485Z,10.60
2023-02-18T03:26:26.730Z,10.13
2023-02-18T03:28:56.511Z,10.80
2023-02-18T03:31:25.763Z,9.47
2023-02-18T03:34:12.842Z,9.30
2023-02-18T03:36:40.121Z,8.67
2023-02-18T03:39:13.895Z,10.57
2023-02-18T03:41:41.183Z,8.67
2023-02-18T03:44:09.862Z,8.87
2023-02-18T03:46:39.497Z,11.30
2023-02-18T03:49:06.761Z,12.03
2023-02-18T03:51:33.492Z,8.40
2023-02-18T03:54:00.192Z,10.70
2023-02-18T03:56:27.052Z,7.40
2023-02-18T03:58:53.671Z,13.20
2023-02-18T04:01:20.614Z,8.13
2023-02-18T04:03:47.349Z,15.43
2023-02-18T04:06:13.977Z,11.33
2023-02-18T04:08:40.599Z,8.07
2023-02-18T04:11:07.146Z,9.87
2023-02-18T04:13:33.733Z,10.60
2023-02-18T04:16:00.351Z,13.93
2023-02-18T04:18:26.957Z,12.23
2023-02-18T04:20:53.551Z,10.90
2023-02-18T04:23:20.196Z,12.30
2023-02-18T04:25:46.729Z,11.47
2023-02-18T04:28:15.341Z,15.30
2023-02-18T04:30:42.710Z,9.53
2023-02-18T04:33:09.758Z,6.93
2023-02-18T04:35:36.817Z,7.87
2023-02-18T04:38:03.883Z,5.90
2023-02-18T04:40:30.770Z,6.33
2023-02-18T04:43:01.055Z,7.43
2023-02-18T04:45:28.294Z,7.90
2023-02-18T04:47:54.897Z,9.27
2023-02-18T04:50:22.178Z,5.87
2023-02-18T04:52:49.222Z,10.53
2023-02-18T04:55:15.959Z,9.93
2023-02-18T04:57:42.574Z,6.50
2023-02-18T05:00:13.211Z,9.97
2023-02-18T05:02:39.797Z,11.43
2023-02-18T05:05:07.224Z,10.50
2023-02-18T05:07:33.982Z,7.67
2023-02-18T05:10:00.544Z,7.03
2023-02-18T05:12:27.173Z,9.37
2023-02-18T05:14:53.789Z,9.73
2023-02-18T05:17:20.348Z,7.77
2023-02-18T05:19:46.905Z,12.00
2023-02-18T05:22:13.464Z,10.13
2023-02-18T05:24:40.134Z,10.03
2023-02-18T05:27:06.727Z,5.13
2023-02-18T05:29:33.284Z,6.40
2023-02-18T05:31:59.917Z,8.10
2023-02-18T05:34:26.549Z,9.03
2023-02-18T05:36:53.083Z,4.60
2023-02-18T05:39:19.646Z,9.80
2023-02-18T05:41:46.181Z,8.63
2023-02-18T05:44:30.985Z,10.77
2023-02-18T05:46:59.470Z,8.47
2023-02-18T05:49:26.166Z,5.37
2023-02-18T05:51:52.723Z,8.40
2023-02-18T05:54:19.472Z,6.73
2023-02-18T05:56:46.407Z,9.73
2023-02-18T05:59:13.395Z,7.43
2023-02-18T06:01:40.417Z,7.03
2023-02-18T06:04:07.096Z,5.97
2023-02-18T06:06:34.507Z,5.27
2023-02-18T06:09:01.500Z,8.77
2023-02-18T06:11:28.068Z,9.37
2023-02-18T06:13:54.658Z,7.73
2023-02-18T06:16:21.473Z,9.27
2023-02-18T06:18:48.052Z,8.43
2023-02-18T06:21:14.762Z,8.53
2023-02-18T06:23:41.355Z,11.23
2023-02-18T06:26:08.595Z,9.83
2023-02-18T06:28:35.419Z,9.83
2023-02-18T06:31:02.276Z,10.03
2023-02-18T06:33:28.881Z,6.20
2023-02-18T06:35:57.879Z,8.63
2023-02-18T06:38:25.238Z,7.53
2023-02-18T06:40:51.931Z,6.50
2023-02-18T06:43:19.518Z,6.47
2023-02-18T06:45:46.190Z,7.20
2023-02-18T06:48:13.974Z,9.03
2023-02-18T06:50:43.080Z,10.53
2023-02-18T06:53:09.844Z,8.53
2023-02-18T06:55:36.674Z,6.27
2023-02-18T06:58:03.424Z,6.43
2023-02-18T07:00:31.172Z,7.23
2023-02-18T07:02:57.774Z,7.80
2023-02-18T07:05:24.448Z,8.20
2023-02-18T07:07:50.984Z,4.17
2023-02-18T07:10:17.714Z,8.37
2023-02-18T07:12:44.373Z,8.37
2023-02-18T07:15:11.256Z,8.30
2023-02-18T07:17:37.889Z,10.67
2023-02-18T07:20:05.816Z,6.47
2023-02-18T07:22:32.521Z,5.63
2023-02-18T07:24:59.169Z,7.80
2023-02-18T07:27:26.004Z,7.97
2023-02-18T07:29:52.530Z,3.90
2023-02-18T07:32:19.873Z,9.60
2023-02-18T07:34:46.514Z,8.63
2023-02-18T07:37:13.116Z,4.57
2023-02-18T07:39:43.549Z,4.10
2023-02-18T07:42:11.885Z,10.03
2023-02-18T07:44:39.011Z,5.30
2023-02-18T07:47:07.309Z,5.13
2023-02-18T07:49:34.419Z,5.33
2023-02-18T07:52:01.316Z,5.37
2023-02-18T07:54:28.131Z,4.20
2023-02-18T07:56:54.887Z,5.97
2023-02-18T07:59:21.621Z,7.33
2023-02-18T08:01:48.330Z,6.20
2023-02-18T08:04:15.394Z,6.20
2023-02-18T08:06:46.090Z,6.30
2023-02-18T08:09:13.468Z,8.80
2023-02-18T08:11:40.347Z,8.67
2023-02-18T08:14:07.357Z,4.23
2023-02-18T08:16:34.786Z,7.40
2023-02-18T08:19:05.657Z,5.97
2023-02-18T08:21:32.530Z,6.10
2023-02-18T08:23:59.836Z,5.37
2023-02-18T08:26:27.057Z,6.93
2023-02-18T08:28:53.730Z,4.70
2023-02-18T08:31:25.356Z,5.13
2023-02-18T08:33:54.251Z,4.73
2023-02-18T08:36:21.484Z,4.33
2023-02-18T08:38:48.132Z,2.70
2023-02-18T08:41:15.650Z,6.47
2023-02-18T08:43:42.895Z,3.43
2023-02-18T08:46:15.927Z,5.40
2023-02-18T08:48:45.461Z,3.13
2023-02-18T08:51:18.667Z,4.17
2023-02-18T08:53:47.183Z,6.67
2023-02-18T08:56:15.400Z,6.67
2023-02-18T08:58:42.721Z,4.70
2023-02-18T09:01:11.548Z,5.00
2023-02-18T09:03:39.242Z,6.87
2023-02-18T09:06:06.181Z,9.40
2023-02-18T09:08:32.878Z,5.83
2023-02-18T09:11:04.390Z,7.67
2023-02-18T09:13:32.461Z,5.70
2023-02-18T09:16:08.226Z,7.27
2023-02-18T09:18:35.952Z,5.90
2023-02-18T09:21:04.501Z,7.03
2023-02-18T09:23:32.964Z,4.77
2023-02-18T09:25:59.999Z,5.03
2023-02-18T09:28:26.869Z,4.93
2023-02-18T09:30:53.700Z,6.00
2023-02-18T09:33:20.403Z,6.67
2023-02-18T09:35:47.043Z,5.80
2023-02-18T09:38:16.499Z,6.33
2023-02-18T09:40:52.317Z,6.17
2023-02-18T09:43:34.438Z,4.97
2023-02-18T09:46:03.251Z,4.47
2023-02-18T09:48:34.913Z,8.53
2023-02-18T09:51:02.251Z,6.50
2023-02-18T09:53:29.150Z,5.47
2023-02-18T09:55:57.191Z,7.33
2023-02-18T09:58:27.014Z,7.17
2023-02-18T10:01:26.144Z,6.17
2023-02-18T10:03:55.514Z,7.00
2023-02-18T10:06:26.415Z,6.60
2023-02-18T10:08:54.761Z,9.00
2023-02-18T10:11:35.261Z,8.63
2023-02-18T10:14:04.157Z,20.13
2023-02-18T10:16:31.327Z,7.97
2023-02-18T10:19:03.894Z,11.37
2023-02-18T10:21:36.073Z,9.57
2023-02-18T10:24:08.997Z,12.47
2023-02-18T10:26:37.632Z,6.20
2023-02-18T10:29:09.422Z,6.33
2023-02-18T10:31:38.203Z,7.43
2023-02-18T10:34:24.621Z,8.67
2023-02-18T10:37:31.203Z,6.90
2023-02-18T10:40:10.913Z,7.47
2023-02-18T10:42:55.411Z,6.57
2023-02-18T10:45:43.571Z,8.03
2023-02-18T10:48:41.471Z,4.97
2023-02-18T10:51:22.816Z,6.43
2023-02-18T10:53:52.118Z,5.80
2023-02-18T10:56:37.961Z,9.87
2023-02-18T10:59:11.277Z,5.17
2023-02-18T11:01:38.759Z,7.87
2023-02-18T11:04:18.838Z,5.03
2023-02-18T11:06:48.395Z,7.20
2023-02-18T11:09:48.041Z,6.40
2023-02-18T11:12:23.447Z,5.83
2023-02-18T11:15:07.093Z,5.30
2023-02-18T11:17:37.434Z,4.43
2023-02-18T11:20:32.026Z,6.70
2023-02-18T11:23:08.020Z,4.87
2023-02-18T11:25:38.731Z,6.10
2023-02-18T11:28:22.689Z,6.67
2023-02-18T11:30:56.245Z,4.53
2023-02-18T11:33:37.658Z,5.97
2023-02-18T11:36:32.018Z,4.77
2023-02-18T11:39:22.491Z,5.10
2023-02-18T11:41:58.801Z,6.27
2023-02-18T11:44:33.055Z,4.60
2023-02-18T11:47:01.991Z,5.47
2023-02-18T11:49:29.975Z,4.27
2023-02-18T11:52:05.714Z,5.23
2023-02-18T11:54:32.655Z,3.57
2023-02-18T11:57:05.381Z,3.53
2023-02-18T11:59:37.847Z,3.50
2023-02-18T12:02:10.619Z,4.93
2023-02-18T12:04:50.808Z,3.43
2023-02-18T12:07:24.632Z,3.63
2023-02-18T12:09:55.946Z,3.60
2023-02-18T12:12:27.819Z,5.07
2023-02-18T12:14:55.959Z,4.40
2023-02-18T12:17:47.104Z,2.63
2023-02-18T12:20:31.690Z,3.30
2023-02-18T12:23:22.965Z,3.00
2023-02-18T12:26:10.698Z,5.30
2023-02-18T12:28:54.443Z,3.90
2023-02-18T12:31:55.129Z,5.57
2023-02-18T12:35:00.573Z,3.50
2023-02-18T12:37:50.163Z,4.80
2023-02-18T12:40:37.781Z,4.10
2023-02-18T12:43:37.969Z,4.23
2023-02-18T12:46:23.603Z,4.90
2023-02-18T12:49:20.335Z,5.37
2023-02-18T12:52:21.360Z,5.70
2023-02-18T12:55:20.545Z,5.40
2023-02-18T12:58:12.592Z,6.63
2023-02-18T13:01:23.893Z,5.67
2023-02-18T13:04:03.940Z,5.20
2023-02-18T13:07:08.744Z,6.57
2023-02-18T13:10:02.654Z,6.80
2023-02-18T13:12:55.464Z,8.27
2023-02-18T13:15:59.833Z,6.77
2023-02-18T13:18:34.489Z,6.50
2023-02-18T13:21:07.947Z,4.30
2023-02-18T13:23:39.167Z,4.40
2023-02-18T13:26:10.214Z,4.80
2023-02-18T13:29:22.476Z,6.47
2023-02-18T13:32:06.257Z,5.27
2023-02-18T13:35:02.282Z,4.23
2023-02-18T13:38:01.262Z,4.47
2023-02-18T13:40:30.991Z,4.10
2023-02-18T13:43:17.804Z,4.50
2023-02-18T13:45:48.472Z,3.63
2023-02-18T13:48:26.181Z,3.77
2023-02-18T13:50:54.892Z,2.80
2023-02-18T13:53:24.304Z,2.90
2023-02-18T13:55:55.345Z,2.10
2023-02-18T13:58:49.009Z,2.00
2023-02-18T14:01:44.175Z,2.33
2023-02-18T14:04:49.870Z,1.80
2023-02-18T14:07:41.599Z,2.03
2023-02-18T14:10:16.948Z,1.97
2023-02-18T14:13:03.217Z,2.47
2023-02-18T14:15:29.825Z,2.53
2023-02-18T14:18:14.331Z,2.60
2023-02-18T14:20:41.029Z,2.33
2023-02-18T14:23:22.824Z,2.97
2023-02-18T14:25:53.700Z,4.50
2023-02-18T14:28:44.764Z,2.40
2023-02-18T14:31:29.829Z,4.87
2023-02-18T14:34:03.324Z,2.97
2023-02-18T14:36:47.027Z,3.27
2023-02-18T14:39:51.114Z,2.50
2023-02-18T14:42:24.422Z,4.37
2023-02-18T14:45:03.437Z,2.57
2023-02-18T14:47:41.474Z,2.37
2023-02-18T14:50:15.151Z,1.87
2023-02-18T14:52:49.510Z,1.77
2023-02-18T14:55:31.199Z,2.23
2023-02-18T14:58:04.260Z,2.40
2023-02-18T15:00:35.487Z,1.90
2023-02-18T15:03:02.664Z,2.00
2023-02-18T15:05:31.901Z,1.87
2023-02-18T15:08:22.592Z,1.60
2023-02-18T15:10:56.454Z,1.60
2023-02-18T15:13:23.116Z,2.27
2023-02-18T15:15:56.584Z,5.17
2023-02-18T15:18:36.388Z,1.93
2023-02-18T15:21:09.468Z,2.70
2023-02-18T15:23:39.635Z,2.00
2023-02-18T15:26:09.699Z,2.10
2023-02-18T15:28:51.323Z,3.03
2023-02-18T15:31:18.159Z,1.60
2023-02-18T15:33:47.062Z,1.50
2023-02-18T15:36:15.018Z,1.93
2023-02-18T15:38:42.903Z,1.30
2023-02-18T15:41:13.082Z,1.57
2023-02-18T15:43:51.678Z,2.17
2023-02-18T15:46:18.515Z,0.83
2023-02-18T15:48:47.857Z,1.73
2023-02-18T15:51:31.248Z,1.43
2023-02-18T15:54:01.367Z,2.23
2023-02-18T15:56:35.444Z,2.00
2023-02-18T15:59:21.835Z,1.23
2023-02-18T16:01:51.975Z,1.67
2023-02-18T16:04:20.245Z,1.63
2023-02-18T16:06:51.553Z,2.10
2023-02-18T16:09:27.075Z,1.50
2023-02-18T16:12:02.029Z,1.77
2023-02-18T16:14:46.478Z,1.20
2023-02-18T16:17:21.796Z,1.67
2023-02-18T16:20:05.854Z,1.27
2023-02-18T16:22:35.395Z,1.70
2023-02-18T16:25:14.701Z,1.67
2023-02-18T16:27:57.856Z,2.57
2023-02-18T16:30:26.852Z,1.57
2023-02-18T16:32:54.803Z,1.97
2023-02-18T16:35:23.355Z,2.13
2023-02-18T16:37:52.770Z,1.53
2023-02-18T16:40:34.253Z,1.97
2023-02-18T16:43:06.437Z,1.20
2023-02-18T16:45:56.477Z,2.13
2023-02-18T16:48:30.981Z,1.20
2023-02-18T16:51:01.295Z,1.27
2023-02-18T16:53:27.851Z,1.23
2023-02-18T16:55:55.190Z,3.13
2023-02-18T16:58:21.886Z,1.63
2023-02-18T17:00:50.531Z,1.37
2023-02-18T17:03:17.490Z,1.27
2023-02-18T17:05:44.143Z,1.90
2023-02-18T17:08:25.528Z,1.30
2023-02-18T17:10:54.594Z,2.97
2023-02-18T17:13:29.009Z,2.73
2023-02-18T17:15:58.186Z,2.10
2023-02-18T17:18:25.994Z,1.13
2023-02-18T17:20:53.583Z,3.90
2023-02-18T17:23:22.960Z,1.60
2023-02-18T17:25:50.855Z,1.30
2023-02-18T17:28:19.162Z,1.23
2023-02-18T17:30:56.468Z,1.20
2023-02-18T17:33:24.992Z,1.60
2023-02-18T17:35:51.957Z,1.80
2023-02-18T17:38:19.659Z,1.53
2023-02-18T17:40:46.371Z,1.73
2023-02-18T17:43:15.673Z,2.30
2023-02-18T17:45:51.527Z,1.60
2023-02-18T17:48:18.356Z,1.97
2023-02-18T17:50:45.188Z,2.17
2023-02-18T17:53:13.163Z,1.60
2023-02-18T17:55:41.291Z,2.23
2023-02-18T17:58:08.556Z,1.50
2023-02-18T18:00:37.974Z,1.50
2023-02-18T18:03:04.932Z,1.77
2023-02-18T18:05:37.174Z,1.47
2023-02-18T18:08:05.356Z,2.67
2023-02-18T18:10:35.307Z,2.10
2023-02-18T18:13:06.223Z,2.13
2023-02-18T18:15:45.612Z,2.63
2023-02-18T18:18:13.489Z,2.07
2023-02-18T18:20:44.121Z,4.10
2023-02-18T18:23:15.921Z,1.57
2023-02-18T18:25:48.035Z,2.03
2023-02-18T18:28:14.813Z,2.07
2023-02-18T18:30:44.109Z,1.20
2023-02-18T18:33:20.320Z,2.13
2023-02-18T18:35:49.973Z,2.73
2023-02-18T18:38:17.972Z,1.60
2023-02-18T18:40:46.255Z,2.30
2023-02-18T18:43:24.150Z,2.93
2023-02-18T18:45:51.513Z,3.10
2023-02-18T18:48:20.175Z,2.33
2023-02-18T18:50:48.279Z,2.10
2023-02-18T18:53:25.611Z,6.97
2023-02-18T18:55:55.234Z,4.37
2023-02-18T18:58:24.388Z,4.03
2023-02-18T19:01:00.663Z,2.40
2023-02-18T19:03:29.260Z,2.20
2023-02-18T19:05:56.116Z,2.63
2023-02-18T19:08:23.166Z,3.23
2023-02-18T19:10:57.655Z,3.13
2023-02-18T19:13:27.034Z,1.80
2023-02-18T19:16:03.651Z,1.70
2023-02-18T19:18:32.370Z,2.73
2023-02-18T19:21:01.687Z,1.67
2023-02-18T19:23:28.503Z,1.67
2023-02-18T19:25:56.394Z,2.77
2023-02-18T19:28:23.208Z,2.00
2023-02-18T19:30:49.850Z,2.20
2023-02-18T19:33:16.533Z,2.83
2023-02-18T19:35:44.047Z,2.50
2023-02-18T19:38:13.327Z,2.57
2023-02-18T19:40:40.831Z,2.60
2023-02-18T19:43:08.329Z,2.20
2023-02-18T19:45:41.162Z,2.03
2023-02-18T19:48:10.832Z,3.33
2023-02-18T19:50:38.123Z,2.20
2023-02-18T19:53:08.857Z,2.60
2023-02-18T19:55:35.863Z,2.80
2023-02-18T19:58:07.344Z,2.33
2023-02-18T20:00:35.205Z,2.20
2023-02-18T20:03:01.900Z,1.93
2023-02-18T20:05:28.737Z,2.00
2023-02-18T20:07:58.352Z,2.37
2023-02-18T20:10:25.517Z,1.87
2023-02-18T20:12:53.811Z,3.13
2023-02-18T20:15:21.394Z,1.60
2023-02-18T20:17:48.136Z,1.80
2023-02-18T20:20:14.882Z,1.87
2023-02-18T20:22:41.592Z,2.20
2023-02-18T20:25:08.441Z,2.13
2023-02-18T20:27:37.582Z,2.00
2023-02-18T20:30:10.223Z,3.10
2023-02-18T20:32:37.512Z,2.60
2023-02-18T20:35:05.103Z,2.33
2023-02-18T20:37:32.504Z,3.80
2023-02-18T20:39:59.097Z,3.50
2023-02-18T20:42:25.708Z,2.83
2023-02-18T20:44:53.033Z,2.47
2023-02-18T20:47:21.149Z,3.07
2023-02-18T20:49:47.777Z,2.77
2023-02-18T20:52:14.649Z,3.00
2023-02-18T20:54:41.323Z,2.60
2023-02-18T20:57:08.972Z,2.43
2023-02-18T20:59:35.838Z,2.50
2023-02-18T21:02:05.660Z,3.17
2023-02-18T21:04:32.666Z,2.63
2023-02-18T21:06:59.273Z,2.40
2023-02-18T21:09:25.985Z,3.30
2023-02-18T21:11:52.634Z,2.93
2023-02-18T21:14:19.283Z,2.77
2023-02-18T21:16:48.968Z,3.33
2023-02-18T21:19:17.462Z,3.07
2023-02-18T21:21:45.064Z,3.10
2023-02-18T21:24:11.908Z,2.50
2023-02-18T21:26:39.087Z,2.53
2023-02-18T21:29:07.887Z,3.60
2023-02-18T21:31:42.583Z,2.60
2023-02-18T21:34:14.302Z,2.67
2023-02-18T21:36:41.910Z,2.93
2023-02-18T21:39:10.279Z,3.57
2023-02-18T21:41:40.203Z,2.87
2023-02-18T21:44:07.737Z,2.70
2023-02-18T21:46:36.232Z,3.30
2023-02-18T21:49:05.496Z,3.00
2023-02-18T21:51:53.923Z,2.60
2023-02-18T21:54:29.595Z,3.23
2023-02-18T21:56:57.765Z,4.70
2023-02-18T21:59:26.806Z,2.90
2023-02-18T22:01:57.552Z,3.07
2023-02-18T22:04:25.537Z,2.67
2023-02-18T22:06:52.500Z,3.93
2023-02-18T22:09:19.207Z,3.07
2023-02-18T22:11:46.182Z,3.20
2023-02-18T22:14:14.230Z,3.43
2023-02-18T22:16:42.028Z,3.10
2023-02-18T22:19:10.396Z,4.30
2023-02-18T22:21:37.285Z,3.33
2023-02-18T22:24:05.642Z,3.80
2023-02-18T22:26:32.672Z,5.67
2023-02-18T22:29:00.234Z,3.17
2023-02-18T22:31:28.604Z,4.40
2023-02-18T22:33:56.875Z,3.03
2023-02-18T22:36:25.030Z,4.53
2023-02-18T22:38:52.210Z,2.73
2023-02-18T22:41:23.635Z,3.40
2023-02-18T22:44:02.367Z,2.90
2023-02-18T22:46:30.336Z,4.17
2023-02-18T22:48:58.224Z,2.93
2023-02-18T22:51:31.558Z,2.83
2023-02-18T22:54:00.260Z,2.80
2023-02-18T22:56:34.320Z,3.00
2023-02-18T22:59:01.325Z,3.80
2023-02-18T23:01:40.649Z,3.10
2023-02-18T23:04:10.193Z,2.10
2023-02-18T23:06:38.244Z,3.10
2023-02-18T23:09:06.684Z,2.63
2023-02-18T23:11:33.683Z,2.60
2023-02-18T23:14:18.340Z,3.90
2023-02-18T23:17:05.852Z,4.17
2023-02-18T23:19:33.682Z,3.83
2023-02-18T23:22:00.548Z,4.07
2023-02-18T23:24:27.413Z,2.40
2023-02-18T23:26:54.051Z,3.50
2023-02-18T23:29:20.962Z,3.37
2023-02-18T23:31:47.614Z,3.50
2023-02-18T23:34:16.590Z,3.50
2023-02-18T23:36:43.864Z,3.00
2023-02-18T23:39:13.366Z,3.43
2023-02-18T23:41:39.989Z,3.67
2023-02-18T23:44:08.335Z,2.73
2023-02-18T23:46:35.468Z,2.63
2023-02-18T23:49:02.250Z,4.27
2023-02-18T23:51:29.832Z,4.23
2023-02-18T23:53:56.662Z,4.40
2023-02-18T23:56:25.756Z,3.83
2023-02-18T23:58:57.686Z,5.70
